Time;durP1;ratioP1;P1;durP2;ratioP2;P2;SDS_P1;SDS_P2;PMS_P1;PMS_P2;Temp;Humidity;BMP_temperature;BMP_pressure;BME280_temperature;BME280_humidity;BME280_pressure;Samples;Min_cycle;Max_cycle;Signal;HPM_P1;HPM_P2
2022/11/01 00:02:10;;;;;;;1.43;0.40;;;;;;;14.83;61.04;96051.06;5133965;27;20453;-54
2022/11/01 00:04:39;;;;;;;1.57;0.40;;;;;;;14.47;62.10;96050.50;5133656;27;20426;-54
2022/11/01 00:07:08;;;;;;;1.10;1.00;;;;;;;14.33;63.15;96054.03;5133060;27;20511;-54
2022/11/01 00:09:36;;;;;;;0.40;0.27;;;;;;;14.82;60.90;96049.50;5133884;27;20439;-54
2022/11/01 00:12:05;;;;;;;0.50;0.33;;;;;;;14.84;60.37;96049.19;5133827;27;20824;-55
2022/11/01 00:14:34;;;;;;;0.40;0.33;;;;;;;14.79;61.13;96044.69;5133267;27;20438;-54
2022/11/01 00:17:02;;;;;;;0.40;0.30;;;;;;;15.18;59.68;96050.78;5133118;27;20992;-54
2022/11/01 00:19:30;;;;;;;0.40;0.30;;;;;;;14.78;61.85;96059.09;5133063;27;20438;-54
2022/11/01 00:21:58;;;;;;;0.40;0.30;;;;;;;15.02;60.96;96056.53;5132989;27;20925;-54
2022/11/01 00:24:30;;;;;;;0.40;0.30;;;;;;;14.69;62.24;96055.44;5133476;27;20498;-54
2022/11/01 00:26:59;;;;;;;1.07;0.73;;;;;;;14.42;62.18;96025.75;5132803;27;20470;-54
2022/11/01 00:29:27;;;;;;;0.50;0.30;;;;;;;14.88;60.51;96058.25;5133163;27;20432;-54
2022/11/01 00:31:56;;;;;;;0.40;0.30;;;;;;;15.13;59.64;96042.81;5132915;27;20432;-54
2022/11/01 00:34:24;;;;;;;0.40;0.20;;;;;;;15.10;59.67;96048.72;5133358;27;20449;-54
2022/11/01 00:36:52;;;;;;;0.40;0.20;;;;;;;14.82;60.80;96054.84;5133037;27;20794;-54
2022/11/01 00:39:21;;;;;;;0.40;0.30;;;;;;;14.88;60.11;96056.38;5132338;27;20804;-54
2022/11/01 00:41:55;;;;;;;0.57;0.40;;;;;;;14.86;60.36;96052.38;5132747;27;20479;-54
2022/11/01 00:44:23;;;;;;;0.40;0.27;;;;;;;14.93;59.47;96036.84;5132683;27;20917;-54
2022/11/01 00:46:52;;;;;;;0.40;0.20;;;;;;;15.08;59.55;96050.06;5133025;27;20952;-54
2022/11/01 00:49:20;;;;;;;0.60;0.53;;;;;;;15.13;59.34;96052.69;5132902;27;20429;-54
2022/11/01 00:51:48;;;;;;;0.40;0.20;;;;;;;15.12;59.21;96057.28;5132995;27;20425;-52
2022/11/01 00:54:16;;;;;;;0.40;0.20;;;;;;;15.16;58.92;96054.81;5132915;27;20426;-52
2022/11/01 00:56:45;;;;;;;0.50;0.40;;;;;;;15.11;58.82;96053.00;5133202;27;20430;-53
2022/11/01 00:59:14;;;;;;;25.50;0.50;;;;;;;15.00;59.12;96059.47;5131899;27;20512;-53
2022/11/01 01:01:43;;;;;;;0.47;0.30;;;;;;;15.03;59.52;96053.59;5132884;27;20448;-53
2022/11/01 01:04:11;;;;;;;1.37;1.33;;;;;;;15.03;59.63;96050.13;5132247;27;20426;-53
2022/11/01 01:06:39;;;;;;;0.50;0.40;;;;;;;15.05;59.39;96050.66;5132877;27;20837;-53
2022/11/01 01:09:07;;;;;;;0.50;0.30;;;;;;;14.90;59.81;96046.22;5131686;27;20799;-53
2022/11/01 01:11:36;;;;;;;0.53;0.33;;;;;;;14.55;60.63;96047.25;5133005;27;20850;-53
2022/11/01 01:14:04;;;;;;;0.60;0.60;;;;;;;14.70;60.14;96048.25;5132633;27;20945;-53
2022/11/01 01:16:33;;;;;;;0.40;0.20;;;;;;;14.63;60.71;96049.34;5132589;27;20433;-53
2022/11/01 01:19:02;;;;;;;0.40;0.20;;;;;;;14.85;60.07;96048.91;5132442;27;20992;-53
2022/11/01 01:21:30;;;;;;;0.40;0.30;;;;;;;14.83;59.59;96048.41;5132022;27;20430;-54
2022/11/01 01:23:58;;;;;;;0.50;0.37;;;;;;;14.74;60.68;96049.28;5132932;27;20918;-54
2022/11/01 01:26:26;;;;;;;0.40;0.30;;;;;;;14.78;59.86;96051.09;5132294;27;20473;-54
2022/11/01 01:28:55;;;;;;;0.40;0.20;;;;;;;14.85;59.15;96050.81;5132873;27;20873;-53
2022/11/01 01:31:23;;;;;;;0.40;0.30;;;;;;;14.83;59.59;96047.59;5132415;27;20431;-53
2022/11/01 01:33:53;;;;;;;0.40;0.20;;;;;;;14.60;60.68;96051.75;5132542;27;20788;-54
2022/11/01 01:36:21;;;;;;;0.40;0.20;;;;;;;14.35;61.82;96054.56;5132847;27;20779;-53
2022/11/01 01:38:52;;;;;;;0.40;0.30;;;;;;;14.20;62.24;96031.41;5132391;27;20492;-53
2022/11/01 01:44:39;;;;;;;1.50;0.43;;;;;;;14.60;60.59;96054.41;5132655;28;20481;-53
2022/11/01 01:47:08;;;;;;;0.40;0.20;;;;;;;14.40;61.44;96054.53;5131873;27;20447;-53
2022/11/01 01:49:38;;;;;;;0.90;0.40;;;;;;;14.20;62.05;96059.94;5132287;27;20422;-53
2022/11/01 01:52:10;;;;;;;0.40;0.23;;;;;;;14.21;61.89;96062.34;5132703;27;20428;-53
2022/11/01 01:54:38;;;;;;;0.70;0.40;;;;;;;13.99;61.10;95990.72;5132408;27;20452;-53
2022/11/01 01:57:08;;;;;;;0.40;0.30;;;;;;;14.43;60.86;96051.31;5132612;27;20419;-53
2022/11/01 01:59:37;;;;;;;0.50;0.50;;;;;;;14.43;60.74;96068.13;5132532;27;20469;-53
2022/11/01 02:02:06;;;;;;;0.50;0.30;;;;;;;14.61;60.73;96059.50;5131758;27;20437;-53
2022/11/01 02:04:39;;;;;;;4.43;0.70;;;;;;;14.50;60.72;96055.28;5132392;27;20431;-53
2022/11/01 02:07:10;;;;;;;0.40;0.20;;;;;;;14.56;60.80;96058.72;5132173;27;20460;-53
2022/11/01 02:09:39;;;;;;;0.80;0.50;;;;;;;14.16;60.63;96013.56;5131325;27;20939;-53
2022/11/01 02:12:09;;;;;;;0.40;0.20;;;;;;;14.15;62.09;96067.94;5132513;27;20491;-53
2022/11/01 02:14:41;;;;;;;0.40;0.30;;;;;;;14.21;61.94;96066.88;5131860;27;20434;-54
2022/11/01 02:17:18;;;;;;;0.40;0.30;;;;;;;14.23;62.03;96072.72;5131246;27;20432;-54
2022/11/01 02:20:11;;;;;;;0.50;0.30;;;;;;;14.18;62.36;96072.75;5133430;27;21003;-54
2022/11/01 02:23:17;;;;;;;2.17;0.93;;;;;;;14.28;61.69;96078.84;5135396;27;20519;-53
2022/11/01 02:26:07;;;;;;;0.40;0.20;;;;;;;14.36;61.56;96072.97;5133002;27;20484;-53
2022/11/01 02:28:54;;;;;;;0.50;0.30;;;;;;;14.36;61.27;96061.50;5135277;27;20944;-53
2022/11/01 02:31:40;;;;;;;0.40;0.30;;;;;;;14.39;61.04;96080.44;5135508;27;20446;-54
2022/11/01 02:34:18;;;;;;;0.47;0.30;;;;;;;14.43;60.74;96073.47;5134906;27;20436;-53
2022/11/01 02:36:53;;;;;;;0.40;0.20;;;;;;;14.32;61.50;96071.91;5135282;27;20426;-53
2022/11/01 02:39:26;;;;;;;0.40;0.20;;;;;;;14.23;61.47;96076.19;5134554;27;20480;-53
2022/11/01 02:42:02;;;;;;;0.40;0.20;;;;;;;14.28;61.36;96081.50;5135459;27;20780;-53
2022/11/01 02:44:36;;;;;;;0.50;0.40;;;;;;;14.21;61.47;96078.34;5135087;27;20792;-53
2022/11/01 02:47:05;;;;;;;0.40;0.20;;;;;;;14.10;61.40;96060.78;5134678;27;20447;-53
2022/11/01 02:49:38;;;;;;;0.40;0.20;;;;;;;14.16;61.54;96080.22;5134944;27;20433;-53
2022/11/01 02:52:10;;;;;;;0.50;0.47;;;;;;;14.10;61.88;96076.78;5135147;27;20433;-53
2022/11/01 02:54:42;;;;;;;1.50;0.80;;;;;;;14.29;61.39;96080.44;5134685;27;20452;-53
2022/11/01 02:57:27;;;;;;;0.40;0.20;;;;;;;14.15;61.57;96083.94;5134907;27;20944;-53
2022/11/01 03:00:02;;;;;;;0.40;0.20;;;;;;;14.06;61.54;96086.41;5134454;27;20489;-53
2022/11/01 03:02:41;;;;;;;0.40;0.20;;;;;;;14.08;61.76;96094.09;5135121;27;20815;-53
2022/11/01 03:05:19;;;;;;;0.40;0.30;;;;;;;13.93;62.20;96086.97;5134267;27;20433;-54
2022/11/01 03:07:52;;;;;;;0.40;0.30;;;;;;;13.77;62.85;96091.53;5134454;27;20430;-54
2022/11/01 03:10:25;;;;;;;0.40;0.30;;;;;;;12.90;66.79;96053.78;5134651;27;20791;-54
2022/11/01 03:13:08;;;;;;;0.50;0.30;;;;;;;13.13;68.13;96093.22;5134594;27;20914;-52
2022/11/01 03:15:45;;;;;;;0.40;0.30;;;;;;;13.45;67.00;96101.72;5134792;27;20927;-53
2022/11/01 03:18:22;;;;;;;0.60;0.37;;;;;;;13.35;67.22;96105.19;5133870;27;21068;-53
2022/11/01 03:20:58;;;;;;;0.50;0.40;;;;;;;13.34;66.96;96114.22;5134356;27;20433;-53
2022/11/01 03:23:32;;;;;;;0.50;0.30;;;;;;;13.41;66.11;96105.97;5134348;27;20424;-53
2022/11/01 03:26:06;;;;;;;1.43;0.47;;;;;;;13.23;66.95;96114.50;5134051;27;20478;-53
2022/11/01 03:28:39;;;;;;;0.40;0.30;;;;;;;13.21;66.67;96112.09;5134102;27;20914;-53
2022/11/01 03:31:11;;;;;;;0.73;0.73;;;;;;;12.91;68.23;96117.34;5132890;27;20467;-53
2022/11/01 03:33:45;;;;;;;15.47;1.33;;;;;;;12.50;70.04;96113.00;5133723;27;20590;-52
2022/11/01 03:36:18;;;;;;;0.40;0.30;;;;;;;12.36;71.72;96102.06;5133896;27;20813;-54
2022/11/01 03:38:52;;;;;;;0.40;0.30;;;;;;;12.95;69.55;96122.97;5134183;27;20461;-52
2022/11/01 03:41:23;;;;;;;4.93;1.07;;;;;;;13.28;67.75;96115.28;5133325;27;20863;-52
2022/11/01 03:43:52;;;;;;;0.40;0.30;;;;;;;13.29;66.50;96110.75;5134227;27;20441;-52
2022/11/01 03:46:21;;;;;;;0.67;0.37;;;;;;;13.22;66.71;96116.38;5133859;27;20423;-52
2022/11/01 03:48:49;;;;;;;0.30;0.20;;;;;;;13.35;65.51;96118.50;5133831;27;20891;-52
2022/11/01 03:51:19;;;;;;;0.50;0.30;;;;;;;13.33;65.36;96120.59;5133680;27;20425;-52
2022/11/01 03:53:47;;;;;;;0.50;0.40;;;;;;;13.23;65.17;96106.53;5133313;27;20444;-52
2022/11/01 03:56:16;;;;;;;0.73;0.73;;;;;;;13.29;65.24;96122.22;5133868;27;20432;-52
2022/11/01 03:58:45;;;;;;;0.50;0.47;;;;;;;13.20;65.12;96123.03;5133912;27;20429;-53
2022/11/01 04:01:15;;;;;;;3.60;0.50;;;;;;;13.25;65.08;96126.47;5133757;27;20436;-53
2022/11/01 04:03:44;;;;;;;0.40;0.20;;;;;;;13.22;65.51;96124.34;5133244;27;20432;-53
2022/11/01 04:06:12;;;;;;;0.40;0.20;;;;;;;13.19;65.09;96129.38;5133911;27;20437;-53
2022/11/01 04:08:42;;;;;;;0.73;0.47;;;;;;;13.20;65.21;96123.03;5132938;27;20789;-52
2022/11/01 04:11:10;;;;;;;0.50;0.40;;;;;;;13.26;64.85;96125.41;5133603;27;20425;-53
2022/11/01 04:13:39;;;;;;;0.40;0.20;;;;;;;13.17;64.97;96127.00;5133101;27;20433;-53
2022/11/01 04:21:41;;;;;;;0.40;0.20;;;;;;;13.03;64.80;96107.25;5133075;27;20873;-53
2022/11/01 04:24:10;;;;;;;2.80;0.40;;;;;;;13.17;65.37;96118.22;5133566;27;20427;-53
2022/11/01 04:26:39;;;;;;;0.40;0.40;;;;;;;13.06;65.46;96108.59;5132793;27;20469;-53
2022/11/01 04:29:07;;;;;;;0.40;0.20;;;;;;;13.19;65.50;96122.22;5133112;27;20421;-54
2022/11/01 04:31:36;;;;;;;0.40;0.30;;;;;;;13.05;65.20;96112.31;5133264;27;20485;-53
2022/11/01 04:34:06;;;;;;;0.57;0.40;;;;;;;13.06;65.12;96119.22;5132993;27;20521;-53
2022/11/01 04:36:34;;;;;;;0.40;0.20;;;;;;;12.98;65.51;96112.56;5132933;27;20445;-53
2022/11/01 04:39:02;;;;;;;0.40;0.20;;;;;;;13.07;65.59;96120.88;5132532;27;20426;-53
2022/11/01 04:41:32;;;;;;;0.40;0.30;;;;;;;12.67;68.05;96126.91;5132987;27;20428;-54
2022/11/01 04:44:00;;;;;;;0.50;0.47;;;;;;;12.45;70.41;96124.41;5132500;27;20459;-53
2022/11/01 04:46:32;;;;;;;0.40;0.30;;;;;;;12.61;69.41;96130.59;5132997;27;20512;-53
2022/11/01 04:49:00;;;;;;;0.40;0.40;;;;;;;12.45;70.70;96136.91;5132717;27;20810;-53
2022/11/01 04:51:46;;;;;;;2.67;2.57;;;;;;;12.31;72.02;96133.94;5133096;27;20485;-53
2022/11/01 04:54:14;;;;;;;0.40;0.30;;;;;;;12.38;72.48;96134.50;5131925;27;20517;-53
2022/11/01 04:56:43;;;;;;;4.53;0.77;;;;;;;12.43;71.81;96133.72;5132890;27;20433;-53
2022/11/01 04:59:12;;;;;;;0.40;0.30;;;;;;;12.66;70.05;96136.72;5132621;27;20430;-52
2022/11/01 05:01:40;;;;;;;0.40;0.30;;;;;;;12.75;70.18;96142.31;5132938;27;20425;-53
2022/11/01 05:04:08;;;;;;;0.40;0.30;;;;;;;12.43;72.14;96139.84;5132531;27;20433;-53
2022/11/01 05:06:37;;;;;;;0.60;0.60;;;;;;;12.24;74.12;96149.34;5132866;27;20432;-53
2022/11/01 05:09:05;;;;;;;0.60;0.40;;;;;;;12.26;73.87;96144.56;5132723;27;20434;-53
2022/11/01 05:11:33;;;;;;;0.50;0.50;;;;;;;12.40;72.23;96148.31;5132869;27;20437;-53
2022/11/01 05:14:03;;;;;;;9.43;0.60;;;;;;;12.39;72.30;96140.63;5132379;27;20436;-53
2022/11/01 05:16:31;;;;;;;0.50;0.30;;;;;;;12.60;71.45;96153.72;5132534;27;20437;-53
2022/11/01 05:19:00;;;;;;;0.47;0.47;;;;;;;12.71;70.51;96155.38;5132809;27;20440;-53
2022/11/01 05:21:28;;;;;;;0.50;0.40;;;;;;;12.64;69.89;96156.66;5132426;27;21013;-53
2022/11/01 05:23:56;;;;;;;0.70;0.60;;;;;;;12.81;68.91;96159.09;5132398;27;20434;-53
2022/11/01 05:26:26;;;;;;;0.40;0.30;;;;;;;12.19;71.74;96159.94;5131900;27;20996;-53
2022/11/01 05:28:54;;;;;;;0.40;0.30;;;;;;;12.71;69.64;96160.69;5132644;27;20433;-53
2022/11/01 05:31:24;;;;;;;0.57;0.57;;;;;;;13.04;68.53;96163.94;5132171;27;20771;-53
2022/11/01 05:33:52;;;;;;;0.77;0.77;;;;;;;13.30;67.44;96168.28;5132279;27;20434;-53
2022/11/01 05:36:20;;;;;;;0.70;0.40;;;;;;;13.53;66.54;96158.97;5132465;27;20448;-53
2022/11/01 05:38:49;;;;;;;0.50;0.47;;;;;;;13.73;66.17;96167.75;5132015;27;20960;-53
2022/11/01 05:41:17;;;;;;;4.23;0.50;;;;;;;14.03;65.15;96161.56;5132541;27;20477;-53
2022/11/01 05:43:45;;;;;;;0.50;0.40;;;;;;;14.26;64.19;96168.97;5131813;27;20910;-53
2022/11/01 05:46:13;;;;;;;0.50;0.30;;;;;;;14.26;64.28;96165.50;5132435;27;20509;-53
2022/11/01 05:48:43;;;;;;;0.50;0.50;;;;;;;14.49;63.67;96171.06;5132396;27;20433;-54
2022/11/01 05:51:12;;;;;;;1.10;1.00;;;;;;;14.48;64.08;96169.47;5132646;27;20436;-55
2022/11/01 05:53:40;;;;;;;0.93;0.93;;;;;;;14.72;63.28;96169.66;5131677;27;20449;-54
2022/11/01 05:56:09;;;;;;;1.03;1.03;;;;;;;14.97;62.39;96174.84;5135811;27;20453;-53
2022/11/01 05:58:37;;;;;;;2.00;1.90;;;;;;;15.04;62.50;96180.69;5135809;27;20437;-53
2022/11/01 06:01:06;;;;;;;2.60;0.80;;;;;;;15.19;62.99;96179.78;5135999;27;20469;-53
2022/11/01 06:03:36;;;;;;;12.47;3.50;;;;;;;15.33;62.33;96183.41;5135779;27;20434;-54
2022/11/01 06:06:06;;;;;;;1.67;1.57;;;;;;;15.45;61.76;96169.72;5135080;27;20442;-54
2022/11/01 06:08:34;;;;;;;1.70;1.37;;;;;;;14.95;60.92;96056.84;5136049;27;20440;-55
2022/11/01 06:11:04;;;;;;;1.90;1.80;;;;;;;15.92;60.24;96185.91;5135348;27;20431;-55
2022/11/01 06:13:33;;;;;;;1.03;1.03;;;;;;;16.34;58.51;96171.88;5135833;27;20432;-55
2022/11/01 06:16:02;;;;;;;2.63;1.33;;;;;;;16.68;57.78;96182.47;5135867;27;20909;-56
2022/11/01 06:18:31;;;;;;;0.60;0.60;;;;;;;17.06;57.10;96182.25;5135569;27;20426;-56
2022/11/01 06:20:59;;;;;;;1.53;1.47;;;;;;;17.26;56.36;96158.91;5135206;27;20477;-56
2022/11/01 06:23:29;;;;;;;0.67;0.67;;;;;;;17.48;56.49;96191.31;5135527;27;20461;-56
2022/11/01 06:26:01;;;;;;;1.63;1.53;;;;;;;17.60;56.23;96194.34;5135075;27;20980;-55
2022/11/01 06:28:29;;;;;;;2.10;1.10;;;;;;;17.68;56.01;96191.78;5135411;27;20429;-56
2022/11/01 06:31:00;;;;;;;2.23;0.87;;;;;;;17.91;56.35;96192.75;5135013;27;20429;-56
2022/11/01 06:33:29;;;;;;;2.10;2.00;;;;;;;17.87;55.76;96191.78;5135180;27;20426;-57
2022/11/01 06:35:57;;;;;;;3.07;2.63;;;;;;;18.05;55.61;96190.94;5135285;27;20419;-58
2022/11/01 06:38:26;;;;;;;2.80;2.60;;;;;;;18.43;53.72;96188.91;5134652;27;20434;-58
2022/11/01 06:40:55;;;;;;;3.23;1.87;;;;;;;18.87;52.04;96194.47;5135035;27;20986;-57
2022/11/01 06:43:24;;;;;;;3.10;1.63;;;;;;;18.66;52.02;96196.00;5135449;27;20415;-57
2022/11/01 06:45:52;;;;;;;2.93;1.63;;;;;;;18.82;51.90;96194.59;5134830;27;20419;-56
2022/11/01 06:48:20;;;;;;;1.30;1.20;;;;;;;19.13;51.42;96191.25;5134945;27;20423;-56
2022/11/01 06:50:49;;;;;;;1.33;1.23;;;;;;;19.21;51.14;96194.03;5134457;27;20434;-56
2022/11/01 06:53:17;;;;;;;0.73;0.73;;;;;;;19.79;50.35;96190.56;5134775;27;20934;-56
2022/11/01 06:55:45;;;;;;;2.80;1.20;;;;;;;19.80;49.44;96190.28;5135044;27;20436;-55
2022/11/01 06:58:15;;;;;;;1.23;0.83;;;;;;;19.96;49.10;96185.34;5134876;27;20432;-56
2022/11/01 07:00:43;;;;;;;1.77;0.93;;;;;;;20.31;48.18;96189.84;5134765;27;20487;-56
2022/11/01 07:03:14;;;;;;;1.43;1.33;;;;;;;20.43;48.25;96187.34;5135092;27;20434;-55
2022/11/01 07:05:42;;;;;;;3.10;1.50;;;;;;;20.97;47.01;96188.03;5134081;27;20433;-55
2022/11/01 07:08:12;;;;;;;1.00;1.00;;;;;;;21.06;46.51;96181.56;5134455;27;20939;-55
2022/11/01 07:10:42;;;;;;;1.57;1.10;;;;;;;20.47;47.31;96180.22;5134702;27;20425;-55
2022/11/01 07:13:12;;;;;;;3.20;2.90;;;;;;;21.02;46.82;96180.59;5135088;27;20430;-55
2022/11/01 07:15:42;;;;;;;0.87;0.87;;;;;;;21.39;45.58;96176.53;5134733;27;20803;-54
2022/11/01 07:18:10;;;;;;;1.13;1.10;;;;;;;21.81;45.06;96174.91;5134863;27;20500;-55
2022/11/01 07:20:41;;;;;;;2.40;0.67;;;;;;;21.76;44.77;96121.91;5134372;27;20469;-55
2022/11/01 07:23:13;;;;;;;2.40;1.00;;;;;;;21.62;44.95;96185.25;5134600;27;20422;-55
2022/11/01 07:25:41;;;;;;;2.10;1.00;;;;;;;20.93;45.71;96150.09;5134415;27;21009;-55
2022/11/01 07:28:10;;;;;;;0.50;0.50;;;;;;;21.56;45.04;96181.13;5133487;27;20443;-54
2022/11/01 07:30:39;;;;;;;1.50;0.73;;;;;;;21.82;44.42;96114.44;5134666;27;20423;-50
2022/11/01 07:33:10;;;;;;;0.60;0.60;;;;;;;23.21;42.48;96165.69;5134656;27;20522;-50
2022/11/01 07:35:38;;;;;;;2.10;1.17;;;;;;;23.27;41.75;96167.91;5134233;27;20938;-50
2022/11/01 07:38:06;;;;;;;3.70;1.43;;;;;;;23.49;41.70;96161.38;5134182;27;20431;-50
2022/11/01 07:40:40;;;;;;;0.83;0.60;;;;;;;24.06;40.47;96164.19;5133768;27;20427;-50
2022/11/01 07:43:08;;;;;;;2.10;1.27;;;;;;;24.25;40.26;96156.38;5134031;27;20434;-50
2022/11/01 07:45:36;;;;;;;0.50;0.40;;;;;;;23.82;40.58;96161.41;5133784;27;20430;-49
2022/11/01 07:48:09;;;;;;;0.80;0.50;;;;;;;23.74;41.42;96160.38;5133972;27;20423;-50
2022/11/01 07:50:41;;;;;;;0.40;0.30;;;;;;;24.87;39.09;96092.97;5133862;27;20435;-49
2022/11/01 07:53:11;;;;;;;0.40;0.40;;;;;;;25.05;39.24;96153.94;5133835;27;20466;-49
2022/11/01 07:55:40;;;;;;;1.47;1.20;;;;;;;24.38;40.07;96151.78;5133438;27;20432;-49
2022/11/01 07:58:09;;;;;;;1.07;1.07;;;;;;;24.18;39.74;96136.38;5133776;27;20427;-48
2022/11/01 08:00:38;;;;;;;0.80;0.80;;;;;;;24.38;39.61;96160.72;5133635;27;20427;-49
2022/11/01 08:03:08;;;;;;;0.50;0.40;;;;;;;25.23;38.55;96153.38;5133450;27;20446;-49
2022/11/01 08:05:38;;;;;;;0.77;0.77;;;;;;;24.46;39.36;96156.31;5133815;27;20423;-49
2022/11/01 08:08:07;;;;;;;0.70;0.70;;;;;;;25.21;38.61;96147.50;5133433;27;20858;-49
2022/11/01 08:10:36;;;;;;;0.60;0.60;;;;;;;25.39;38.11;96137.16;5133577;27;20419;-50
2022/11/01 08:13:06;;;;;;;0.80;0.60;;;;;;;25.42;37.83;96138.41;5133671;27;20466;-50
2022/11/01 08:15:35;;;;;;;0.73;0.73;;;;;;;26.07;37.28;96116.19;5133751;27;20423;-50
2022/11/01 08:18:03;;;;;;;0.63;0.63;;;;;;;27.58;36.26;96104.63;5133313;27;20825;-50
2022/11/01 08:20:32;;;;;;;6.77;1.20;;;;;;;28.51;34.18;96116.91;5133269;27;20744;-49
2022/11/01 08:23:02;;;;;;;10.20;0.70;;;;;;;27.77;34.81;96117.47;5133354;27;20466;-50
2022/11/01 08:25:31;;;;;;;2.00;1.57;;;;;;;27.33;35.30;96123.16;5132588;27;20478;-50
2022/11/01 08:28:03;;;;;;;4.73;0.80;;;;;;;27.31;34.76;96111.84;5132505;27;20427;-50
2022/11/01 08:30:31;;;;;;;1.40;0.90;;;;;;;27.54;35.63;96112.75;5133525;27;20930;-51
2022/11/01 08:33:01;;;;;;;1.23;0.70;;;;;;;27.41;35.07;96107.78;5133157;27;20416;-50
2022/11/01 08:35:31;;;;;;;1.70;1.60;;;;;;;27.03;36.89;96114.72;5133147;27;20423;-54
2022/11/01 08:38:00;;;;;;;1.17;1.17;;;;;;;27.73;35.01;96107.28;5133250;27;20423;-54
2022/11/01 08:40:30;;;;;;;1.90;1.07;;;;;;;28.02;34.63;96116.03;5132177;27;20431;-54
2022/11/01 08:42:59;;;;;;;0.60;0.60;;;;;;;27.71;34.21;96103.34;5132863;27;20463;-53
2022/11/01 08:45:28;;;;;;;5.30;1.80;;;;;;;27.15;35.77;96104.88;5132777;27;20430;-54
2022/11/01 08:48:00;;;;;;;3.87;1.30;;;;;;;27.18;36.49;96088.59;5133094;27;20427;-54
2022/11/01 08:50:28;;;;;;;8.43;0.97;;;;;;;27.78;35.95;96097.25;5132494;27;20946;-53
2022/11/01 08:52:57;;;;;;;1.13;1.10;;;;;;;27.72;34.46;96104.94;5132561;27;20435;-53
2022/11/01 08:55:25;;;;;;;2.80;0.97;;;;;;;28.54;35.44;96101.75;5132502;27;20859;-53
2022/11/01 08:57:58;;;;;;;1.33;1.23;;;;;;;28.44;34.16;96094.19;5132474;27;20434;-53
2022/11/01 09:00:28;;;;;;;0.50;0.40;;;;;;;28.64;34.96;96095.72;5132759;27;20419;-54
2022/11/01 09:02:56;;;;;;;4.03;1.30;;;;;;;29.21;33.39;96103.59;5132090;27;20989;-54
2022/11/01 09:05:24;;;;;;;0.70;0.70;;;;;;;29.29;32.01;96090.81;5132531;27;20771;-53
2022/11/01 09:07:56;;;;;;;0.80;0.70;;;;;;;28.83;33.30;96092.88;5132375;27;20957;-54
2022/11/01 09:10:25;;;;;;;0.60;0.60;;;;;;;29.38;32.32;96097.59;5133041;27;20434;-54
2022/11/01 09:12:55;;;;;;;3.53;0.40;;;;;;;28.92;32.99;96090.66;5132558;27;20430;-54
2022/11/01 09:15:23;;;;;;;0.70;0.70;;;;;;;29.10;34.17;96093.66;5132825;27;20918;-54
2022/11/01 09:17:51;;;;;;;0.70;0.70;;;;;;;29.66;32.50;96085.41;5132827;27;20411;-54
2022/11/01 09:20:20;;;;;;;0.50;0.40;;;;;;;29.65;31.79;96076.44;5132576;27;20422;-55
2022/11/01 09:22:51;;;;;;;1.13;0.93;;;;;;;30.26;31.59;96070.44;5132360;27;20477;-55
2022/11/01 09:25:19;;;;;;;0.47;0.30;;;;;;;30.53;30.51;96062.91;5132491;27;20480;-56
2022/11/01 09:27:48;;;;;;;0.40;0.30;;;;;;;30.33;31.26;96067.81;5131927;27;20989;-55
2022/11/01 09:30:18;;;;;;;0.50;0.30;;;;;;;30.65;30.29;96063.38;5135433;27;20983;-54
2022/11/01 09:32:46;;;;;;;0.50;0.40;;;;;;;30.49;30.56;96060.13;5136982;27;20431;-55
2022/11/01 09:35:16;;;;;;;0.37;0.30;;;;;;;31.64;29.19;96058.50;5136779;27;20436;-55
2022/11/01 09:37:44;;;;;;;0.40;0.30;;;;;;;32.38;28.43;96039.47;5136399;27;20434;-56
2022/11/01 09:40:14;;;;;;;0.40;0.30;;;;;;;32.05;27.98;96050.00;5136568;27;20414;-56
2022/11/01 09:42:45;;;;;;;0.40;0.37;;;;;;;31.50;29.18;96041.22;5136768;27;20857;-57
2022/11/01 09:45:20;;;;;;;0.40;0.30;;;;;;;32.62;27.51;96033.19;5136592;27;20410;-56
2022/11/01 09:47:52;;;;;;;0.40;0.30;;;;;;;32.17;28.32;96041.41;5136390;27;20434;-56
2022/11/01 09:50:25;;;;;;;1.47;1.37;;;;;;;32.09;28.56;96035.13;5135797;27;20426;-56
2022/11/01 09:52:55;;;;;;;0.40;0.40;;;;;;;33.29;27.12;96023.25;5136342;27;20438;-57
2022/11/01 09:55:34;;;;;;;0.40;0.37;;;;;;;32.85;27.01;96021.00;5136331;27;20423;-57
2022/11/01 09:58:09;;;;;;;13.50;0.47;;;;;;;32.74;28.00;96009.28;5136411;27;20444;-57
2022/11/01 10:00:48;;;;;;;0.50;0.33;;;;;;;33.17;27.92;96017.00;5136547;27;20433;-58
2022/11/01 10:03:33;;;;;;;0.30;0.20;;;;;;;33.64;26.30;96001.94;5136432;27;20534;-57
2022/11/01 10:06:12;;;;;;;0.60;0.40;;;;;;;33.76;26.47;96004.19;5136012;27;20425;-58
2022/11/01 10:08:54;;;;;;;0.50;0.33;;;;;;;33.37;26.72;96000.81;5136196;27;20429;-56
2022/11/01 10:11:42;;;;;;;0.40;0.40;;;;;;;32.87;27.13;95996.66;5135834;27;20428;-57
2022/11/01 10:14:23;;;;;;;0.53;0.40;;;;;;;33.14;27.08;95990.31;5135935;27;20472;-58
2022/11/01 10:17:05;;;;;;;0.50;0.40;;;;;;;33.68;26.23;95988.13;5135069;27;20441;-58
2022/11/01 10:19:35;;;;;;;0.60;0.33;;;;;;;33.61;26.47;95986.22;5135980;27;20430;-59
2022/11/01 10:22:07;;;;;;;0.40;0.40;;;;;;;33.49;26.42;95978.41;5135511;27;20430;-59
2022/11/01 10:24:41;;;;;;;0.60;0.60;;;;;;;32.81;27.19;95944.13;5135937;27;20422;-59
2022/11/01 10:27:18;;;;;;;0.40;0.40;;;;;;;33.34;26.97;95976.91;5135953;27;20478;-58
2022/11/01 10:29:51;;;;;;;0.60;0.60;;;;;;;33.72;26.46;95969.66;5135346;27;20426;-59
2022/11/01 10:32:30;;;;;;;0.67;0.60;;;;;;;33.63;26.65;95961.06;5135336;27;20430;-59
2022/11/01 10:35:03;;;;;;;1.00;0.60;;;;;;;33.28;26.78;95956.53;5135545;27;20434;-59
2022/11/01 10:37:38;;;;;;;0.50;0.30;;;;;;;33.49;26.24;95936.38;5135482;27;20429;-59
2022/11/01 10:40:29;;;;;;;1.03;0.40;;;;;;;34.75;25.44;95942.88;5135070;27;20435;-51
2022/11/01 10:42:59;;;;;;;0.40;0.30;;;;;;;34.16;25.96;95933.19;5135018;27;20689;-52
2022/11/01 10:45:28;;;;;;;0.30;0.30;;;;;;;34.55;24.85;95936.41;5135182;27;20188;-52
2022/11/01 10:47:58;;;;;;;0.40;0.30;;;;;;;35.01;23.71;95914.63;5134924;27;20551;-51
2022/11/01 10:50:30;;;;;;;0.30;0.30;;;;;;;34.65;24.81;95920.94;5134845;27;20202;-52
2022/11/01 10:53:02;;;;;;;0.30;0.20;;;;;;;34.64;23.88;95922.13;5134826;27;20185;-57
2022/11/01 10:55:38;;;;;;;0.40;0.37;;;;;;;34.68;24.66;95923.69;5134793;27;20189;-56
2022/11/01 10:58:14;;;;;;;8.33;0.57;;;;;;;35.26;23.58;95914.34;5134856;27;20653;-57
2022/11/01 11:00:44;;;;;;;0.43;0.33;;;;;;;34.22;25.37;95915.84;5135093;27;20414;-57
2022/11/01 11:03:19;;;;;;;0.43;0.43;;;;;;;34.51;24.57;95905.31;5134436;27;20305;-55
2022/11/01 11:05:49;;;;;;;0.30;0.30;;;;;;;35.53;23.92;95895.06;5134959;27;20185;-57
2022/11/01 11:08:20;;;;;;;0.30;0.30;;;;;;;35.80;23.05;95898.59;5134814;27;20184;-57
2022/11/01 11:10:49;;;;;;;0.50;0.30;;;;;;;35.73;23.21;95898.69;5135241;27;20196;-57
2022/11/01 11:13:21;;;;;;;0.40;0.40;;;;;;;34.63;23.68;95891.09;5134839;27;20196;-57
2022/11/01 11:15:52;;;;;;;1.00;0.50;;;;;;;34.62;24.28;95880.47;5134654;27;20181;-57
2022/11/01 11:18:28;;;;;;;0.60;0.40;;;;;;;34.97;25.26;95880.81;5134389;27;20192;-57
2022/11/01 11:20:59;;;;;;;0.40;0.30;;;;;;;35.76;22.83;95878.56;5134233;27;20232;-57
2022/11/01 11:23:29;;;;;;;0.40;0.30;;;;;;;35.40;23.50;95860.97;5134646;27;20256;-56
2022/11/01 11:26:02;;;;;;;0.40;0.40;;;;;;;36.45;22.37;95861.22;5134441;27;20251;-56
2022/11/01 11:28:34;;;;;;;0.40;0.33;;;;;;;35.90;22.22;95877.56;5134365;27;20655;-57
2022/11/01 11:31:13;;;;;;;2.10;0.80;;;;;;;34.07;24.14;95866.84;5134376;27;20196;-56
2022/11/01 11:33:50;;;;;;;0.60;0.50;;;;;;;34.13;24.87;95863.25;5134386;27;20267;-56
2022/11/01 11:36:26;;;;;;;1.23;0.50;;;;;;;33.81;24.44;95865.47;5134261;27;20199;-56
2022/11/01 11:38:55;;;;;;;0.40;0.33;;;;;;;33.37;25.08;95863.41;5134228;27;20187;-56
2022/11/01 11:41:28;;;;;;;0.40;0.40;;;;;;;33.30;25.27;95854.44;5134415;27;20184;-56
2022/11/01 11:43:56;;;;;;;0.40;0.40;;;;;;;34.55;24.28;95853.81;5134294;27;20242;-55
2022/11/01 11:46:25;;;;;;;0.60;0.40;;;;;;;34.74;24.24;95850.41;5134143;27;20181;-56
2022/11/01 11:48:57;;;;;;;0.30;0.27;;;;;;;36.42;22.99;95844.72;5134203;27;20195;-56
2022/11/01 11:51:28;;;;;;;2.80;0.77;;;;;;;35.58;23.50;95836.69;5134133;27;20264;-54
2022/11/01 11:54:20;;;;;;;0.50;0.40;;;;;;;34.32;24.16;95834.38;5133379;27;20189;-55
2022/11/01 11:56:51;;;;;;;0.30;0.30;;;;;;;34.48;24.40;95829.09;5133852;27;20276;-54
2022/11/01 11:59:27;;;;;;;0.40;0.30;;;;;;;35.20;23.85;95833.28;5133765;27;20276;-55
2022/11/01 12:01:58;;;;;;;0.40;0.30;;;;;;;35.15;23.87;95832.97;5132927;27;20195;-55